createdAt,value
2023-09-04T00:00:12.645Z,2.70
2023-09-04T00:02:39.402Z,2.50
2023-09-04T00:05:06.204Z,2.28
2023-09-04T00:07:32.744Z,2.65
2023-09-04T00:09:59.231Z,2.25
2023-09-04T00:12:26.722Z,2.30
2023-09-04T00:17:19.877Z,2.60
2023-09-04T00:19:46.715Z,2.33
2023-09-04T00:22:14.216Z,2.40
2023-09-04T00:27:08.695Z,2.42
2023-09-04T00:29:35.233Z,2.50
2023-09-04T00:32:03.609Z,2.40
2023-09-04T00:34:30.471Z,2.90
2023-09-04T00:36:57.091Z,2.40
2023-09-04T00:39:23.771Z,2.65
2023-09-04T00:41:50.516Z,2.75
2023-09-04T00:44:18.821Z,2.80
2023-09-04T00:46:45.784Z,2.47
2023-09-04T00:49:14.083Z,2.83
2023-09-04T00:51:40.998Z,2.50
2023-09-04T00:54:09.793Z,2.58
2023-09-04T00:56:36.637Z,2.50
2023-09-04T00:59:03.313Z,2.80
2023-09-04T01:01:31.206Z,2.67
2023-09-04T01:03:57.905Z,2.50
2023-09-04T01:06:24.535Z,2.63
2023-09-04T01:08:51.983Z,2.50
2023-09-04T01:11:45.791Z,2.50
2023-09-04T01:14:17.507Z,2.72
2023-09-04T01:16:45.148Z,3.17
2023-09-04T01:19:12.153Z,2.78
2023-09-04T01:21:39.280Z,2.95
2023-09-04T01:24:10.288Z,2.67
2023-09-04T01:26:56.444Z,2.30
2023-09-04T01:29:40.930Z,2.53
2023-09-04T01:32:17.611Z,2.58
2023-09-04T01:34:48.194Z,2.75
2023-09-04T01:37:15.431Z,2.80
2023-09-04T01:39:43.284Z,2.70
2023-09-04T01:42:10.111Z,2.72
2023-09-04T01:44:36.799Z,2.60
2023-09-04T01:47:03.550Z,2.15
2023-09-04T01:49:30.176Z,2.80
2023-09-04T01:52:00.996Z,2.65
2023-09-04T01:54:28.241Z,2.80
2023-09-04T01:56:54.766Z,2.90
2023-09-04T01:59:21.803Z,2.97
2023-09-04T02:01:48.718Z,2.80
2023-09-04T02:04:15.276Z,2.80
2023-09-04T02:06:41.864Z,2.95
2023-09-04T02:09:09.001Z,2.65
2023-09-04T02:11:35.650Z,3.00
2023-09-04T02:14:02.232Z,3.08
2023-09-04T02:16:29.171Z,2.88
2023-09-04T02:18:56.546Z,2.95
2023-09-04T02:21:23.250Z,2.90
2023-09-04T02:23:49.787Z,3.78
2023-09-04T02:26:16.397Z,3.20
2023-09-04T02:28:42.927Z,3.03
2023-09-04T02:31:10.265Z,2.92
2023-09-04T02:33:36.989Z,3.08
2023-09-04T02:36:04.191Z,3.08
2023-09-04T02:38:30.861Z,2.72
2023-09-04T02:40:57.488Z,2.85
2023-09-04T02:43:24.944Z,2.63
2023-09-04T02:45:53.457Z,2.80
2023-09-04T02:48:20.337Z,2.83
2023-09-04T02:50:46.983Z,3.47
2023-09-04T02:53:13.637Z,3.15
2023-09-04T02:55:40.157Z,2.83
2023-09-04T02:58:06.717Z,2.95
2023-09-04T03:00:33.330Z,3.00
2023-09-04T03:03:00.082Z,3.17
2023-09-04T03:05:28.190Z,2.95
2023-09-04T03:07:55.390Z,2.90
2023-09-04T03:10:22.183Z,2.83
2023-09-04T03:12:48.921Z,3.15
2023-09-04T03:15:15.484Z,2.90
2023-09-04T03:17:42.023Z,3.10
2023-09-04T03:20:10.829Z,2.90
2023-09-04T03:22:37.381Z,3.40
2023-09-04T03:25:04.184Z,2.80
2023-09-04T03:27:30.829Z,2.92
2023-09-04T03:29:58.026Z,3.00
2023-09-04T03:32:25.120Z,3.30
2023-09-04T03:34:51.612Z,3.50
2023-09-04T03:37:18.164Z,3.08
2023-09-04T03:39:44.710Z,3.08
2023-09-04T03:42:11.261Z,2.97
2023-09-04T03:44:37.789Z,3.20
2023-09-04T03:47:04.555Z,2.83
2023-09-04T03:49:31.396Z,2.95
2023-09-04T03:51:57.914Z,3.10
2023-09-04T03:54:24.526Z,3.10
2023-09-04T03:56:51.293Z,2.80
2023-09-04T03:59:18.009Z,3.30
2023-09-04T04:01:44.832Z,2.92
2023-09-04T04:04:14.320Z,3.03
2023-09-04T04:06:41.319Z,3.28
2023-09-04T04:09:08.306Z,2.70
2023-09-04T04:11:36.767Z,2.65
2023-09-04T04:14:03.362Z,2.83
2023-09-04T04:16:33.113Z,3.05
2023-09-04T04:18:59.709Z,2.78
2023-09-04T04:21:26.248Z,2.80
2023-09-04T04:23:52.901Z,3.20
2023-09-04T04:26:19.712Z,2.90
2023-09-04T04:28:46.614Z,3.00
2023-09-04T04:31:13.180Z,3.50
2023-09-04T04:33:39.984Z,3.70
2023-09-04T04:36:06.455Z,3.28
2023-09-04T04:38:32.985Z,3.28
2023-09-04T04:40:59.583Z,3.28
2023-09-04T04:43:26.145Z,3.30
2023-09-04T04:45:54.304Z,3.80
2023-09-04T04:48:21.381Z,3.85
2023-09-04T04:50:47.975Z,3.65
2023-09-04T04:53:14.548Z,3.50
2023-09-04T04:55:41.075Z,4.15
2023-09-04T04:58:07.617Z,3.60
2023-09-04T05:00:34.472Z,9.20
2023-09-04T05:03:01.039Z,11.88
2023-09-04T05:05:27.590Z,44.17
2023-09-04T05:07:54.077Z,22.75
2023-09-04T05:10:20.583Z,4.65
2023-09-04T05:12:47.062Z,3.90
2023-09-04T05:15:13.611Z,26.15
2023-09-04T05:17:40.161Z,26.80
2023-09-04T05:20:07.326Z,38.17
2023-09-04T05:22:34.281Z,4.30
2023-09-04T05:25:01.300Z,3.55
2023-09-04T05:27:27.988Z,5.88
2023-09-04T05:29:55.759Z,6.93
2023-09-04T05:32:22.890Z,3.65
2023-09-04T05:34:53.456Z,3.58
2023-09-04T05:37:20.259Z,3.30
2023-09-04T05:39:46.812Z,3.35
2023-09-04T05:42:13.609Z,3.20
2023-09-04T05:44:40.222Z,3.75
2023-09-04T05:47:07.167Z,3.63
2023-09-04T05:49:36.416Z,4.63
2023-09-04T05:52:04.098Z,3.50
2023-09-04T05:54:31.015Z,3.88
2023-09-04T05:56:57.565Z,3.10
2023-09-04T05:59:24.592Z,3.08
2023-09-04T06:01:51.168Z,3.60
2023-09-04T06:04:17.757Z,2.85
2023-09-04T06:06:44.408Z,3.58
2023-09-04T06:09:11.054Z,3.70
2023-09-04T06:11:37.798Z,3.63
2023-09-04T06:14:04.727Z,3.33
2023-09-04T06:16:31.340Z,3.05
2023-09-04T06:18:57.976Z,2.88
2023-09-04T06:21:24.626Z,2.95
2023-09-04T06:23:51.759Z,2.78
2023-09-04T06:26:24.272Z,3.13
2023-09-04T06:28:54.104Z,3.08
2023-09-04T06:31:25.196Z,3.13
2023-09-04T06:33:59.759Z,3.08
2023-09-04T06:36:26.378Z,3.15
2023-09-04T06:38:57.069Z,3.08
2023-09-04T06:41:25.235Z,3.08
2023-09-04T06:43:53.835Z,3.10
2023-09-04T06:46:20.621Z,2.63
2023-09-04T06:48:47.242Z,3.10
2023-09-04T06:51:13.785Z,3.20
2023-09-04T06:53:41.402Z,3.03
2023-09-04T06:56:08.002Z,3.10
2023-09-04T06:58:34.635Z,2.70
2023-09-04T07:01:05.555Z,3.10
2023-09-04T07:03:35.486Z,2.65
2023-09-04T07:06:04.711Z,2.70
2023-09-04T07:08:36.926Z,2.83
2023-09-04T07:11:06.328Z,3.10
2023-09-04T07:13:33.764Z,2.60
2023-09-04T07:18:29.161Z,2.55
2023-09-04T07:20:56.694Z,2.78
2023-09-04T07:23:27.149Z,2.83
2023-09-04T07:26:01.381Z,2.80
2023-09-04T07:28:28.242Z,3.05
2023-09-04T07:31:15.773Z,2.40
2023-09-04T07:33:46.184Z,2.65
2023-09-04T07:36:15.028Z,2.50
2023-09-04T07:38:43.812Z,2.40
2023-09-04T07:41:10.928Z,2.63
2023-09-04T07:43:37.937Z,2.50
2023-09-04T07:46:05.516Z,2.30
2023-09-04T07:48:35.768Z,2.40
2023-09-04T07:51:23.551Z,2.45
2023-09-04T07:53:57.015Z,2.30
2023-09-04T07:58:51.472Z,2.30
2023-09-04T08:01:18.554Z,2.40
2023-09-04T08:03:45.301Z,2.20
2023-09-04T08:06:12.297Z,2.00
2023-09-04T08:08:38.849Z,2.20
2023-09-04T08:11:05.369Z,2.10
2023-09-04T08:13:32.343Z,1.90
2023-09-04T08:15:58.896Z,1.95
2023-09-04T08:18:25.483Z,1.90
2023-09-04T08:20:52.030Z,2.10
2023-09-04T08:23:19.134Z,2.10
2023-09-04T08:25:46.739Z,2.00
2023-09-04T08:28:13.391Z,1.80
2023-09-04T08:30:40.391Z,1.65
2023-09-04T08:33:07.055Z,2.00
2023-09-04T08:35:33.742Z,1.60
2023-09-04T08:38:04.593Z,1.67
2023-09-04T08:40:32.804Z,1.70
2023-09-04T08:43:00.014Z,1.52
2023-09-04T08:45:28.123Z,1.70
2023-09-04T08:47:56.510Z,1.98
2023-09-04T08:50:27.609Z,1.60
2023-09-04T08:52:54.214Z,1.50
2023-09-04T08:55:24.025Z,1.55
2023-09-04T08:57:50.636Z,1.60
2023-09-04T09:00:18.749Z,1.98
2023-09-04T09:02:47.054Z,1.65
2023-09-04T09:05:16.685Z,1.70
2023-09-04T09:07:45.480Z,1.50
2023-09-04T09:10:20.684Z,1.70
2023-09-04T09:12:53.007Z,1.70
2023-09-04T09:15:21.013Z,1.65
2023-09-04T09:17:54.493Z,1.60
2023-09-04T09:20:35.894Z,1.80
2023-09-04T09:23:06.573Z,1.77
2023-09-04T09:25:35.414Z,1.38
2023-09-04T09:28:17.779Z,1.90
2023-09-04T09:30:48.667Z,1.60
2023-09-04T09:33:21.787Z,1.65
2023-09-04T09:35:55.783Z,1.63
2023-09-04T09:38:23.249Z,1.40
2023-09-04T09:43:26.665Z,1.88
2023-09-04T09:45:53.791Z,1.70
2023-09-04T09:48:25.526Z,1.63
2023-09-04T09:50:54.616Z,1.60
2023-09-04T09:53:21.228Z,1.75
2023-09-04T09:55:49.704Z,1.80
2023-09-04T09:58:18.060Z,1.52
2023-09-04T10:00:45.237Z,1.70
2023-09-04T10:05:40.560Z,1.75
2023-09-04T10:08:08.593Z,1.67
2023-09-04T10:10:38.339Z,1.70
2023-09-04T10:13:27.695Z,1.75
2023-09-04T10:15:58.483Z,1.98
2023-09-04T10:18:31.487Z,1.80
2023-09-04T10:21:00.755Z,1.73
2023-09-04T10:23:38.611Z,2.03
2023-09-04T10:26:08.784Z,2.08
2023-09-04T10:28:45.346Z,2.05
2023-09-04T10:31:13.478Z,2.00
2023-09-04T10:33:40.424Z,1.88
2023-09-04T10:36:07.829Z,1.60
2023-09-04T10:38:36.418Z,2.10
2023-09-04T10:41:06.659Z,1.60
2023-09-04T10:43:40.225Z,1.77
2023-09-04T10:46:09.888Z,1.92
2023-09-04T10:48:47.877Z,1.77
2023-09-04T10:51:36.117Z,1.90
2023-09-04T10:54:24.074Z,1.60
2023-09-04T10:56:55.278Z,2.08
2023-09-04T10:59:22.013Z,1.80
2023-09-04T11:01:48.619Z,1.70
2023-09-04T11:04:36.795Z,1.95
2023-09-04T11:07:21.642Z,1.70
2023-09-04T11:09:49.305Z,1.52
2023-09-04T11:12:26.619Z,1.80
2023-09-04T11:14:55.689Z,1.60
2023-09-04T11:17:26.607Z,1.58
2023-09-04T11:19:54.094Z,1.60
2023-09-04T11:22:22.375Z,1.85
2023-09-04T11:24:50.856Z,1.75
2023-09-04T11:27:17.379Z,1.60
2023-09-04T11:29:45.023Z,1.90
2023-09-04T11:32:11.701Z,1.73
2023-09-04T11:34:38.387Z,1.48
2023-09-04T11:37:06.154Z,1.42
2023-09-04T11:39:35.305Z,1.88
2023-09-04T11:42:02.271Z,2.05
2023-09-04T11:44:33.202Z,2.10
2023-09-04T11:47:00.220Z,1.88
2023-09-04T11:49:27.524Z,1.40
2023-09-04T11:51:54.198Z,1.70
2023-09-04T11:54:30.930Z,1.95
2023-09-04T11:56:59.568Z,1.80
2023-09-04T11:59:26.337Z,1.88
2023-09-04T12:01:52.944Z,1.73
2023-09-04T12:04:19.618Z,1.80
2023-09-04T12:06:47.187Z,1.70
2023-09-04T12:09:14.858Z,1.80
2023-09-04T12:11:43.608Z,2.10
2023-09-04T12:14:10.928Z,1.60
2023-09-04T12:16:37.852Z,1.60
2023-09-04T12:19:06.341Z,1.88
2023-09-04T12:21:33.712Z,1.80
2023-09-04T12:24:00.287Z,1.90
2023-09-04T12:26:27.540Z,1.80
2023-09-04T12:28:54.150Z,1.90
2023-09-04T12:31:25.134Z,1.92
2023-09-04T12:33:53.347Z,1.80
2023-09-04T12:36:22.882Z,1.67
2023-09-04T12:38:49.525Z,1.83
2023-09-04T12:41:16.070Z,2.10
2023-09-04T12:43:43.853Z,1.80
2023-09-04T12:46:10.593Z,1.77
2023-09-04T12:48:37.247Z,1.60
2023-09-04T12:51:04.183Z,1.80
2023-09-04T12:53:30.789Z,1.88
2023-09-04T12:55:57.638Z,1.83
2023-09-04T12:58:24.188Z,1.83
2023-09-04T13:00:51.450Z,1.80
2023-09-04T13:03:19.030Z,2.03
2023-09-04T13:05:45.649Z,1.80
2023-09-04T13:08:12.283Z,1.67
2023-09-04T13:10:39.524Z,1.88
2023-09-04T13:13:06.171Z,1.70
2023-09-04T13:15:32.861Z,1.70
2023-09-04T13:17:59.549Z,1.73
2023-09-04T13:20:26.199Z,1.83
2023-09-04T13:22:52.947Z,1.55
2023-09-04T13:25:19.579Z,2.00
2023-09-04T13:27:46.201Z,1.98
2023-09-04T13:30:12.780Z,1.85
2023-09-04T13:32:39.433Z,1.85
2023-09-04T13:35:08.734Z,1.70
2023-09-04T13:37:37.050Z,1.92
2023-09-04T13:40:05.086Z,1.90
2023-09-04T13:42:32.321Z,1.80
2023-09-04T13:44:59.021Z,1.63
2023-09-04T13:47:27.355Z,1.73
2023-09-04T13:49:55.773Z,1.90
2023-09-04T13:52:25.830Z,1.70
2023-09-04T13:54:59.902Z,1.73
2023-09-04T13:57:26.724Z,2.05
2023-09-04T13:59:53.374Z,1.50
2023-09-04T14:02:20.142Z,1.73
2023-09-04T14:04:46.832Z,1.67
2023-09-04T14:07:13.583Z,1.65
2023-09-04T14:09:40.102Z,1.90
2023-09-04T14:12:07.352Z,1.50
2023-09-04T14:14:34.160Z,1.73
2023-09-04T14:17:00.714Z,1.65
2023-09-04T14:19:27.285Z,1.73
2023-09-04T14:21:55.369Z,1.65
2023-09-04T14:24:22.346Z,1.77
2023-09-04T14:26:49.021Z,1.70
2023-09-04T14:29:15.639Z,1.83
2023-09-04T14:31:42.515Z,1.90
2023-09-04T14:34:09.057Z,1.58
2023-09-04T14:36:35.653Z,1.70
2023-09-04T14:39:02.410Z,2.08
2023-09-04T14:41:34.893Z,1.65
2023-09-04T14:44:01.682Z,1.52
2023-09-04T14:46:31.024Z,1.85
2023-09-04T14:48:58.059Z,1.77
2023-09-04T14:51:24.685Z,1.70
2023-09-04T14:53:53.472Z,1.52
2023-09-04T14:56:25.276Z,1.63
2023-09-04T14:58:55.776Z,1.67
2023-09-04T15:01:23.872Z,1.70
2023-09-04T15:03:51.968Z,1.80
2023-09-04T15:06:19.216Z,1.48
2023-09-04T15:11:17.607Z,1.58
2023-09-04T15:13:47.066Z,1.67
2023-09-04T15:16:13.944Z,2.05
2023-09-04T15:18:42.722Z,1.52
2023-09-04T15:21:10.496Z,1.60
2023-09-04T15:23:37.123Z,1.70
2023-09-04T15:26:03.790Z,1.50
2023-09-04T15:28:30.929Z,1.58
2023-09-04T15:33:28.329Z,1.75
2023-09-04T15:35:58.322Z,1.60
2023-09-04T15:38:25.838Z,1.58
2023-09-04T15:40:53.886Z,1.73
2023-09-04T15:43:21.893Z,1.58
2023-09-04T15:45:52.569Z,1.98
2023-09-04T15:48:20.687Z,1.70
2023-09-04T15:50:48.474Z,1.70
2023-09-04T15:53:15.372Z,1.55
2023-09-04T15:55:42.100Z,1.73
2023-09-04T15:58:08.768Z,1.85
2023-09-04T16:00:36.132Z,1.60
2023-09-04T16:03:04.493Z,1.50
2023-09-04T16:05:31.140Z,1.85
2023-09-04T16:07:57.797Z,1.65
2023-09-04T16:10:24.867Z,1.45
2023-09-04T16:12:51.558Z,1.60
2023-09-04T16:15:19.335Z,1.75
2023-09-04T16:17:47.655Z,1.80
2023-09-04T16:20:14.306Z,1.73
2023-09-04T16:22:41.400Z,1.70
2023-09-04T16:25:08.355Z,1.60
2023-09-04T16:27:35.079Z,1.67
2023-09-04T16:30:01.687Z,1.80
2023-09-04T16:32:28.297Z,1.80
2023-09-04T16:34:55.384Z,1.98
2023-09-04T16:37:22.311Z,1.60
2023-09-04T16:39:49.178Z,1.70
2023-09-04T16:42:18.956Z,1.88
2023-09-04T16:44:45.887Z,1.70
2023-09-04T16:47:12.759Z,1.73
2023-09-04T16:49:39.618Z,1.63
2023-09-04T16:52:06.863Z,1.60
2023-09-04T16:54:33.426Z,1.63
2023-09-04T16:57:00.031Z,1.88
2023-09-04T16:59:26.564Z,1.60
2023-09-04T17:01:53.197Z,1.95
2023-09-04T17:04:19.766Z,1.63
2023-09-04T17:06:46.519Z,1.80
2023-09-04T17:09:13.430Z,2.00
2023-09-04T17:11:40.204Z,2.03
2023-09-04T17:14:08.011Z,1.60
2023-09-04T17:16:34.817Z,1.70
2023-09-04T17:19:01.339Z,1.92
2023-09-04T17:21:27.865Z,1.77
2023-09-04T17:23:54.442Z,1.95
2023-09-04T17:26:20.987Z,1.85
2023-09-04T17:28:47.537Z,2.00
2023-09-04T17:31:14.105Z,1.85
2023-09-04T17:33:40.673Z,2.15
2023-09-04T17:36:08.361Z,1.50
2023-09-04T17:38:36.991Z,1.75
2023-09-04T17:41:11.740Z,1.70
2023-09-04T17:43:39.400Z,2.03
2023-09-04T17:46:08.372Z,1.90
2023-09-04T17:48:36.224Z,1.77
2023-09-04T17:51:04.215Z,1.80
2023-09-04T17:53:30.688Z,2.05
2023-09-04T17:55:57.251Z,2.25
2023-09-04T17:58:26.609Z,2.35
2023-09-04T18:00:53.795Z,2.50
2023-09-04T18:03:21.477Z,1.95
2023-09-04T18:05:48.256Z,1.60
2023-09-04T18:08:14.848Z,2.08
2023-09-04T18:10:42.810Z,2.00
2023-09-04T18:13:09.335Z,1.80
2023-09-04T18:15:35.971Z,1.88
2023-09-04T18:18:02.645Z,1.92
2023-09-04T18:20:29.338Z,1.95
2023-09-04T18:22:55.926Z,2.10
2023-09-04T18:25:22.923Z,2.30
2023-09-04T18:27:51.235Z,1.83
2023-09-04T18:30:17.852Z,1.80
2023-09-04T18:32:44.377Z,2.20
2023-09-04T18:35:11.380Z,2.33
2023-09-04T18:37:37.905Z,2.25
2023-09-04T18:40:05.626Z,2.50
2023-09-04T18:42:32.321Z,2.42
2023-09-04T18:44:59.042Z,2.60
2023-09-04T18:47:25.764Z,2.13
2023-09-04T18:49:52.401Z,2.33
2023-09-04T18:52:20.976Z,2.55
2023-09-04T18:54:48.561Z,2.70
2023-09-04T18:57:17.226Z,2.72
2023-09-04T18:59:43.928Z,2.85
2023-09-04T19:02:10.606Z,2.83
2023-09-04T19:04:39.307Z,2.88
2023-09-04T19:07:05.932Z,2.92
2023-09-04T19:09:33.362Z,2.03
2023-09-04T19:14:26.880Z,2.33
2023-09-04T19:16:53.447Z,2.83
2023-09-04T19:19:20.111Z,2.50
2023-09-04T19:21:46.648Z,2.58
2023-09-04T19:24:13.317Z,2.55
2023-09-04T19:26:39.904Z,2.60
2023-09-04T19:29:06.604Z,2.58
2023-09-04T19:31:33.371Z,2.67
2023-09-04T19:33:59.921Z,2.50
2023-09-04T19:36:28.483Z,2.75
2023-09-04T19:38:55.061Z,2.75
2023-09-04T19:41:22.409Z,2.80
2023-09-04T19:43:49.114Z,3.00
2023-09-04T19:46:15.691Z,3.90
2023-09-04T19:48:42.242Z,3.40
2023-09-04T19:51:08.786Z,3.20
2023-09-04T19:53:35.284Z,2.28
2023-09-04T19:56:01.850Z,2.70
2023-09-04T19:58:28.435Z,3.10
2023-09-04T20:00:55.054Z,3.17
2023-09-04T20:03:21.756Z,3.00
2023-09-04T20:05:48.343Z,3.03
2023-09-04T20:08:14.959Z,2.47
2023-09-04T20:10:41.589Z,2.60
2023-09-04T20:13:08.098Z,2.90
2023-09-04T20:15:34.683Z,2.50
2023-09-04T20:18:01.975Z,2.80
2023-09-04T20:20:28.710Z,3.22
2023-09-04T20:22:55.363Z,2.58
2023-09-04T20:25:21.926Z,2.53
2023-09-04T20:27:48.497Z,2.30
2023-09-04T20:30:15.227Z,2.83
2023-09-04T20:32:42.393Z,2.53
2023-09-04T20:35:09.901Z,2.50
2023-09-04T20:40:04.694Z,2.83
2023-09-04T20:42:31.362Z,3.03
2023-09-04T20:44:58.202Z,3.25
2023-09-04T20:47:24.884Z,2.88
2023-09-04T20:49:51.540Z,2.95
2023-09-04T20:52:18.142Z,2.60
2023-09-04T20:54:44.765Z,2.50
2023-09-04T20:57:12.237Z,2.25
2023-09-04T21:02:05.284Z,2.13
2023-09-04T21:04:31.763Z,2.50
2023-09-04T21:07:08.577Z,2.55
2023-09-04T21:09:35.957Z,2.80
2023-09-04T21:12:21.182Z,3.08
2023-09-04T21:15:06.214Z,2.38
2023-09-04T21:17:51.334Z,2.15
2023-09-04T21:20:36.322Z,2.08
2023-09-04T21:23:21.315Z,1.95
2023-09-04T21:26:10.072Z,2.00
2023-09-04T21:28:55.478Z,2.10
2023-09-04T21:31:40.430Z,2.50
2023-09-04T21:34:25.361Z,3.00
2023-09-04T21:37:10.351Z,2.20
2023-09-04T21:39:55.781Z,2.08
2023-09-04T21:42:40.753Z,2.00
2023-09-04T21:45:26.147Z,2.30
2023-09-04T21:48:11.540Z,2.35
2023-09-04T21:50:56.700Z,2.22
2023-09-04T21:53:41.661Z,2.20
2023-09-04T21:56:26.510Z,2.45
2023-09-04T21:59:11.449Z,2.10
2023-09-04T22:01:56.503Z,2.00
2023-09-04T22:04:41.457Z,2.20
2023-09-04T22:07:26.614Z,2.10
2023-09-04T22:10:11.627Z,2.22
2023-09-04T22:12:56.891Z,2.05
2023-09-04T22:15:41.947Z,2.20
2023-09-04T22:18:41.279Z,2.20
2023-09-04T22:21:26.487Z,2.17
2023-09-04T22:24:11.860Z,1.90
2023-09-04T22:26:57.432Z,2.17
2023-09-04T22:29:43.227Z,2.20
2023-09-04T22:35:14.791Z,2.03
2023-09-04T22:37:59.970Z,2.03
2023-09-04T22:40:45.228Z,1.85
2023-09-04T22:43:30.398Z,1.75
2023-09-04T22:46:15.734Z,1.85
2023-09-04T22:49:00.795Z,1.70
2023-09-04T22:51:45.726Z,1.63
2023-09-04T22:54:30.576Z,2.13
2023-09-04T22:57:15.474Z,1.98
2023-09-04T23:00:00.422Z,1.80
2023-09-04T23:02:45.394Z,2.10
2023-09-04T23:05:31.357Z,1.65
2023-09-04T23:08:16.444Z,1.65
2023-09-04T23:11:01.614Z,1.77
2023-09-04T23:13:46.345Z,2.20
2023-09-04T23:16:31.296Z,1.80
2023-09-04T23:19:16.551Z,2.00
2023-09-04T23:21:43.141Z,2.20
2023-09-04T23:24:13.073Z,1.60
2023-09-04T23:26:41.624Z,1.80
2023-09-04T23:29:13.239Z,1.80
2023-09-04T23:31:46.519Z,2.25
2023-09-04T23:34:29.714Z,1.85
2023-09-04T23:37:14.230Z,1.90
2023-09-04T23:39:45.842Z,1.85
2023-09-04T23:42:31.086Z,1.77
2023-09-04T23:45:13.188Z,1.75
2023-09-04T23:47:42.953Z,2.00
2023-09-04T23:50:12.304Z,2.00
2023-09-04T23:52:39.152Z,2.30
2023-09-04T23:55:06.883Z,2.10
2023-09-04T23:57:37.440Z,2.20
